sensor_id;sensor_type;location;lat;lon;timestamp;pressure;altitude;pressure_sealevel;temperature;humidity
498;BME280;39559;48.630;9.162;2023-10-19T00:00:02;96159.69;;;9.12;100.00
498;BME280;39559;48.630;9.162;2023-10-19T00:02:51;96154.59;;;9.10;100.00
498;BME280;39559;48.630;9.162;2023-10-19T00:05:17;96150.91;;;9.14;100.00
498;BME280;39559;48.630;9.162;2023-10-19T00:07:42;96152.75;;;9.12;100.00
498;BME280;39559;48.630;9.162;2023-10-19T00:10:09;96152.19;;;9.07;100.00
498;BME280;39559;48.630;9.162;2023-10-19T00:12:36;96155.28;;;9.28;100.00
498;BME280;39559;48.630;9.162;2023-10-19T00:15:03;96167.59;;;9.68;100.00
498;BME280;39559;48.630;9.162;2023-10-19T00:18:59;96178.25;;;10.06;100.00
498;BME280;39559;48.630;9.162;2023-10-19T00:21:25;96182.25;;;10.12;100.00
498;BME280;39559;48.630;9.162;2023-10-19T00:23:57;96189.53;;;10.19;100.00
498;BME280;39559;48.630;9.162;2023-10-19T00:26:26;96186.22;;;10.17;100.00
498;BME280;39559;48.630;9.162;2023-10-19T00:28:54;96187.53;;;10.10;100.00
498;BME280;39559;48.630;9.162;2023-10-19T00:31:24;96180.56;;;9.96;100.00
498;BME280;39559;48.630;9.162;2023-10-19T00:33:50;96163.84;;;9.88;100.00
498;BME280;39559;48.630;9.162;2023-10-19T00:36:20;96145.97;;;9.83;100.00
498;BME280;39559;48.630;9.162;2023-10-19T00:38:47;96127.47;;;9.60;100.00
498;BME280;39559;48.630;9.162;2023-10-19T00:42:57;96119.41;;;9.51;100.00
498;BME280;39559;48.630;9.162;2023-10-19T00:45:22;96114.38;;;9.48;100.00
498;BME280;39559;48.630;9.162;2023-10-19T00:47:52;96108.38;;;9.47;100.00
498;BME280;39559;48.630;9.162;2023-10-19T00:50:18;96112.09;;;9.43;100.00
498;BME280;39559;48.630;9.162;2023-10-19T00:52:48;96108.09;;;9.37;100.00
498;BME280;39559;48.630;9.162;2023-10-19T00:55:18;96120.50;;;9.32;100.00
498;BME280;39559;48.630;9.162;2023-10-19T00:57:48;96127.53;;;9.30;100.00
498;BME280;39559;48.630;9.162;2023-10-19T01:00:14;96129.84;;;9.35;100.00
498;BME280;39559;48.630;9.162;2023-10-19T01:03:06;96109.94;;;9.21;100.00
498;BME280;39559;48.630;9.162;2023-10-19T01:06:55;96111.72;;;9.20;100.00
498;BME280;39559;48.630;9.162;2023-10-19T01:09:32;96108.28;;;9.34;100.00
498;BME280;39559;48.630;9.162;2023-10-19T01:12:02;96127.16;;;9.79;100.00
498;BME280;39559;48.630;9.162;2023-10-19T01:15:14;96127.28;;;10.19;100.00
498;BME280;39559;48.630;9.162;2023-10-19T01:17:47;96136.22;;;10.01;100.00
498;BME280;39559;48.630;9.162;2023-10-19T01:20:23;96124.66;;;9.92;100.00
498;BME280;39559;48.630;9.162;2023-10-19T01:23:09;96110.97;;;9.76;100.00
498;BME280;39559;48.630;9.162;2023-10-19T01:28:16;96083.28;;;9.62;100.00
498;BME280;39559;48.630;9.162;2023-10-19T01:30:54;96073.78;;;9.48;100.00
498;BME280;39559;48.630;9.162;2023-10-19T01:33:21;96067.66;;;9.49;100.00
498;BME280;39559;48.630;9.162;2023-10-19T01:35:48;96065.44;;;9.43;100.00
498;BME280;39559;48.630;9.162;2023-10-19T01:38:32;96051.75;;;9.41;100.00
498;BME280;39559;48.630;9.162;2023-10-19T01:41:02;96048.88;;;9.46;100.00
498;BME280;39559;48.630;9.162;2023-10-19T01:43:40;96047.31;;;9.43;100.00
498;BME280;39559;48.630;9.162;2023-10-19T01:46:06;96049.50;;;9.49;100.00
498;BME280;39559;48.630;9.162;2023-10-19T01:48:40;96040.34;;;9.58;100.00
498;BME280;39559;48.630;9.162;2023-10-19T01:51:07;96037.56;;;9.61;100.00
498;BME280;39559;48.630;9.162;2023-10-19T01:54:53;96051.91;;;9.67;100.00
498;BME280;39559;48.630;9.162;2023-10-19T01:57:25;96049.00;;;9.71;100.00
498;BME280;39559;48.630;9.162;2023-10-19T01:59:51;96059.13;;;9.76;100.00
498;BME280;39559;48.630;9.162;2023-10-19T02:02:16;96050.88;;;9.69;100.00
498;BME280;39559;48.630;9.162;2023-10-19T02:04:42;96057.00;;;9.68;100.00
498;BME280;39559;48.630;9.162;2023-10-19T02:07:07;96068.84;;;9.72;100.00
498;BME280;39559;48.630;9.162;2023-10-19T02:09:38;96065.34;;;9.73;100.00
498;BME280;39559;48.630;9.162;2023-10-19T02:12:04;96061.31;;;9.82;100.00
498;BME280;39559;48.630;9.162;2023-10-19T02:14:32;96061.00;;;10.01;100.00
498;BME280;39559;48.630;9.162;2023-10-19T02:18:52;96033.44;;;10.13;100.00
498;BME280;39559;48.630;9.162;2023-10-19T02:21:18;96019.16;;;9.93;100.00
498;BME280;39559;48.630;9.162;2023-10-19T02:23:48;96003.94;;;9.74;100.00
498;BME280;39559;48.630;9.162;2023-10-19T02:26:21;96003.34;;;9.56;100.00
498;BME280;39559;48.630;9.162;2023-10-19T02:28:56;96005.28;;;9.52;100.00
498;BME280;39559;48.630;9.162;2023-10-19T02:31:23;96006.41;;;9.48;100.00
498;BME280;39559;48.630;9.162;2023-10-19T02:33:51;96014.91;;;9.50;100.00
498;BME280;39559;48.630;9.162;2023-10-19T02:36:18;96017.31;;;9.53;100.00
498;BME280;39559;48.630;9.162;2023-10-19T02:38:45;96023.59;;;9.49;100.00
498;BME280;39559;48.630;9.162;2023-10-19T02:42:50;96043.69;;;9.46;100.00
498;BME280;39559;48.630;9.162;2023-10-19T02:45:17;96049.16;;;9.41;100.00
498;BME280;39559;48.630;9.162;2023-10-19T02:47:44;96044.63;;;9.45;100.00
498;BME280;39559;48.630;9.162;2023-10-19T02:50:10;96034.81;;;9.50;100.00
498;BME280;39559;48.630;9.162;2023-10-19T02:52:42;96043.03;;;9.42;100.00
498;BME280;39559;48.630;9.162;2023-10-19T02:55:09;96028.28;;;9.30;100.00
498;BME280;39559;48.630;9.162;2023-10-19T02:57:36;96028.91;;;9.33;100.00
498;BME280;39559;48.630;9.162;2023-10-19T03:00:05;96024.75;;;9.31;100.00
498;BME280;39559;48.630;9.162;2023-10-19T03:02:38;96018.44;;;9.35;100.00
498;BME280;39559;48.630;9.162;2023-10-19T03:06:49;96011.44;;;9.22;100.00
498;BME280;39559;48.630;9.162;2023-10-19T03:09:15;95998.28;;;9.11;100.00
498;BME280;39559;48.630;9.162;2023-10-19T03:11:47;95994.78;;;8.98;100.00
498;BME280;39559;48.630;9.162;2023-10-19T03:14:17;95996.91;;;9.06;100.00
498;BME280;39559;48.630;9.162;2023-10-19T03:16:43;95996.81;;;9.07;100.00
498;BME280;39559;48.630;9.162;2023-10-19T03:19:10;95988.31;;;9.05;100.00
498;BME280;39559;48.630;9.162;2023-10-19T03:21:37;95978.13;;;9.02;100.00
498;BME280;39559;48.630;9.162;2023-10-19T03:24:09;95975.53;;;9.02;100.00
498;BME280;39559;48.630;9.162;2023-10-19T03:26:41;95976.09;;;8.93;100.00
498;BME280;39559;48.630;9.162;2023-10-19T03:30:48;95980.84;;;9.00;100.00
498;BME280;39559;48.630;9.162;2023-10-19T03:33:13;95972.50;;;8.95;100.00
498;BME280;39559;48.630;9.162;2023-10-19T03:35:39;95966.47;;;8.95;100.00
498;BME280;39559;48.630;9.162;2023-10-19T03:38:08;95962.41;;;8.91;100.00
498;BME280;39559;48.630;9.162;2023-10-19T03:40:41;95964.44;;;8.86;100.00
498;BME280;39559;48.630;9.162;2023-10-19T03:43:06;95955.38;;;8.93;100.00
498;BME280;39559;48.630;9.162;2023-10-19T03:45:44;95950.41;;;8.90;100.00
498;BME280;39559;48.630;9.162;2023-10-19T03:48:20;95949.84;;;8.84;100.00
498;BME280;39559;48.630;9.162;2023-10-19T03:51:06;95947.44;;;8.67;100.00
498;BME280;39559;48.630;9.162;2023-10-19T03:54:47;95938.47;;;8.73;100.00
498;BME280;39559;48.630;9.162;2023-10-19T03:57:17;95944.59;;;8.72;100.00
498;BME280;39559;48.630;9.162;2023-10-19T03:59:46;95935.03;;;8.58;100.00
498;BME280;39559;48.630;9.162;2023-10-19T04:02:15;95931.84;;;8.38;100.00
498;BME280;39559;48.630;9.162;2023-10-19T04:04:46;95924.84;;;8.40;100.00
498;BME280;39559;48.630;9.162;2023-10-19T04:07:13;95923.84;;;8.43;100.00
498;BME280;39559;48.630;9.162;2023-10-19T04:10:04;95925.09;;;8.66;100.00
498;BME280;39559;48.630;9.162;2023-10-19T04:12:35;95904.00;;;8.43;100.00
498;BME280;39559;48.630;9.162;2023-10-19T04:15:02;95901.88;;;8.05;100.00
498;BME280;39559;48.630;9.162;2023-10-19T04:18:45;95924.44;;;7.87;100.00
498;BME280;39559;48.630;9.162;2023-10-19T04:21:11;95922.16;;;7.97;100.00
498;BME280;39559;48.630;9.162;2023-10-19T04:23:36;95927.94;;;8.17;100.00
498;BME280;39559;48.630;9.162;2023-10-19T04:26:02;95925.81;;;8.23;100.00
498;BME280;39559;48.630;9.162;2023-10-19T04:28:37;95917.25;;;8.23;100.00
498;BME280;39559;48.630;9.162;2023-10-19T04:31:16;95913.19;;;8.19;100.00
498;BME280;39559;48.630;9.162;2023-10-19T04:33:42;95910.75;;;8.16;100.00
498;BME280;39559;48.630;9.162;2023-10-19T04:36:12;95904.84;;;8.14;100.00
498;BME280;39559;48.630;9.162;2023-10-19T04:38:38;95895.22;;;8.01;100.00
498;BME280;39559;48.630;9.162;2023-10-19T04:42:45;95890.03;;;8.01;100.00
498;BME280;39559;48.630;9.162;2023-10-19T04:45:12;95886.72;;;7.99;100.00
498;BME280;39559;48.630;9.162;2023-10-19T04:47:38;95887.22;;;8.06;100.00
498;BME280;39559;48.630;9.162;2023-10-19T04:50:05;95887.22;;;8.06;100.00
498;BME280;39559;48.630;9.162;2023-10-19T04:52:31;95886.97;;;7.95;100.00
498;BME280;39559;48.630;9.162;2023-10-19T04:54:58;95887.59;;;7.84;100.00
498;BME280;39559;48.630;9.162;2023-10-19T04:57:24;95892.88;;;7.82;100.00
498;BME280;39559;48.630;9.162;2023-10-19T04:59:51;95890.53;;;7.78;100.00
498;BME280;39559;48.630;9.162;2023-10-19T05:02:17;95891.34;;;7.78;100.00
498;BME280;39559;48.630;9.162;2023-10-19T05:06:43;95884.78;;;7.73;100.00
498;BME280;39559;48.630;9.162;2023-10-19T05:09:09;95879.63;;;7.73;100.00
498;BME280;39559;48.630;9.162;2023-10-19T05:11:34;95869.88;;;7.78;100.00
498;BME280;39559;48.630;9.162;2023-10-19T05:14:00;95872.84;;;7.86;100.00
498;BME280;39559;48.630;9.162;2023-10-19T05:16:25;95872.75;;;7.87;100.00
498;BME280;39559;48.630;9.162;2023-10-19T05:18:51;95871.34;;;7.82;100.00
498;BME280;39559;48.630;9.162;2023-10-19T05:21:17;95874.50;;;7.87;100.00
498;BME280;39559;48.630;9.162;2023-10-19T05:23:42;95879.50;;;7.90;100.00
498;BME280;39559;48.630;9.162;2023-10-19T05:26:08;95879.38;;;7.77;100.00
498;BME280;39559;48.630;9.162;2023-10-19T05:30:41;95873.84;;;7.83;100.00
498;BME280;39559;48.630;9.162;2023-10-19T05:33:07;95878.69;;;7.90;100.00
498;BME280;39559;48.630;9.162;2023-10-19T05:35:33;95884.59;;;7.92;100.00
498;BME280;39559;48.630;9.162;2023-10-19T05:38:08;95872.09;;;7.84;100.00
498;BME280;39559;48.630;9.162;2023-10-19T05:40:33;95877.53;;;7.79;100.00
498;BME280;39559;48.630;9.162;2023-10-19T05:43:01;95876.88;;;7.76;100.00
498;BME280;39559;48.630;9.162;2023-10-19T05:45:28;95872.84;;;7.86;100.00
498;BME280;39559;48.630;9.162;2023-10-19T05:47:56;95871.91;;;7.87;100.00
498;BME280;39559;48.630;9.162;2023-10-19T05:50:23;95868.22;;;7.91;100.00
498;BME280;39559;48.630;9.162;2023-10-19T05:54:39;95859.56;;;7.92;100.00
498;BME280;39559;48.630;9.162;2023-10-19T05:57:05;95874.53;;;8.01;100.00
498;BME280;39559;48.630;9.162;2023-10-19T05:59:34;95870.19;;;8.02;100.00
498;BME280;39559;48.630;9.162;2023-10-19T06:01:59;95868.63;;;7.99;100.00
498;BME280;39559;48.630;9.162;2023-10-19T06:04:25;95878.22;;;7.97;100.00
498;BME280;39559;48.630;9.162;2023-10-19T06:06:50;95878.88;;;8.01;100.00
498;BME280;39559;48.630;9.162;2023-10-19T06:09:17;95877.03;;;8.03;100.00
498;BME280;39559;48.630;9.162;2023-10-19T06:11:42;95887.00;;;8.09;100.00
498;BME280;39559;48.630;9.162;2023-10-19T06:14:08;95892.56;;;8.17;100.00
498;BME280;39559;48.630;9.162;2023-10-19T06:18:39;95889.56;;;8.39;100.00
498;BME280;39559;48.630;9.162;2023-10-19T06:21:05;95888.88;;;8.21;100.00
498;BME280;39559;48.630;9.162;2023-10-19T06:23:30;95888.97;;;8.20;100.00
498;BME280;39559;48.630;9.162;2023-10-19T06:25:57;95883.06;;;8.18;100.00
498;BME280;39559;48.630;9.162;2023-10-19T06:28:22;95890.56;;;8.22;100.00
498;BME280;39559;48.630;9.162;2023-10-19T06:30:48;95886.03;;;8.26;100.00
498;BME280;39559;48.630;9.162;2023-10-19T06:33:14;95890.00;;;8.32;100.00
498;BME280;39559;48.630;9.162;2023-10-19T06:35:39;95883.81;;;8.34;100.00
498;BME280;39559;48.630;9.162;2023-10-19T06:38:06;95892.97;;;8.40;100.00
498;BME280;39559;48.630;9.162;2023-10-19T06:42:38;95894.16;;;8.34;100.00
498;BME280;39559;48.630;9.162;2023-10-19T06:45:04;95885.25;;;8.54;100.00
498;BME280;39559;48.630;9.162;2023-10-19T06:47:30;95889.84;;;8.78;100.00
498;BME280;39559;48.630;9.162;2023-10-19T06:49:56;95883.78;;;8.64;100.00
498;BME280;39559;48.630;9.162;2023-10-19T06:52:22;95882.38;;;8.59;100.00
498;BME280;39559;48.630;9.162;2023-10-19T06:54:47;95878.84;;;8.45;100.00
498;BME280;39559;48.630;9.162;2023-10-19T06:57:13;95885.97;;;8.42;100.00
498;BME280;39559;48.630;9.162;2023-10-19T06:59:38;95894.13;;;8.50;100.00
498;BME280;39559;48.630;9.162;2023-10-19T07:02:04;95895.41;;;8.57;100.00
498;BME280;39559;48.630;9.162;2023-10-19T07:06:37;95906.41;;;8.61;100.00
498;BME280;39559;48.630;9.162;2023-10-19T07:09:03;95896.88;;;8.61;100.00
498;BME280;39559;48.630;9.162;2023-10-19T07:11:30;95899.72;;;8.71;100.00
498;BME280;39559;48.630;9.162;2023-10-19T07:13:56;95895.13;;;8.76;100.00
498;BME280;39559;48.630;9.162;2023-10-19T07:16:21;95895.13;;;8.76;100.00
498;BME280;39559;48.630;9.162;2023-10-19T07:18:47;95891.72;;;8.76;100.00
498;BME280;39559;48.630;9.162;2023-10-19T07:21:13;95894.03;;;8.80;100.00
498;BME280;39559;48.630;9.162;2023-10-19T07:23:38;95897.50;;;8.94;100.00
498;BME280;39559;48.630;9.162;2023-10-19T07:26:05;95896.69;;;8.93;100.00
498;BME280;39559;48.630;9.162;2023-10-19T07:30:36;95878.94;;;8.73;100.00
498;BME280;39559;48.630;9.162;2023-10-19T07:33:02;95884.50;;;8.81;100.00
498;BME280;39559;48.630;9.162;2023-10-19T07:35:34;95885.31;;;8.96;100.00
498;BME280;39559;48.630;9.162;2023-10-19T07:38:00;95890.66;;;9.07;100.00
498;BME280;39559;48.630;9.162;2023-10-19T07:40:27;95891.44;;;9.22;100.00
498;BME280;39559;48.630;9.162;2023-10-19T07:42:53;95899.00;;;9.39;100.00
498;BME280;39559;48.630;9.162;2023-10-19T07:45:20;95903.50;;;9.50;100.00
498;BME280;39559;48.630;9.162;2023-10-19T07:47:47;95898.97;;;9.67;100.00
498;BME280;39559;48.630;9.162;2023-10-19T07:50:13;95891.13;;;9.68;100.00
498;BME280;39559;48.630;9.162;2023-10-19T07:54:34;95889.28;;;9.83;100.00
498;BME280;39559;48.630;9.162;2023-10-19T07:57:01;95888.47;;;9.95;100.00
498;BME280;39559;48.630;9.162;2023-10-19T07:59:34;95882.06;;;10.01;100.00
498;BME280;39559;48.630;9.162;2023-10-19T08:02:00;95891.72;;;10.12;100.00
498;BME280;39559;48.630;9.162;2023-10-19T08:04:30;95885.91;;;10.21;100.00
498;BME280;39559;48.630;9.162;2023-10-19T08:06:57;95888.81;;;10.29;100.00
498;BME280;39559;48.630;9.162;2023-10-19T08:09:23;95878.66;;;10.26;100.00
498;BME280;39559;48.630;9.162;2023-10-19T08:11:50;95877.00;;;10.25;100.00
498;BME280;39559;48.630;9.162;2023-10-19T08:14:23;95882.41;;;10.35;100.00
498;BME280;39559;48.630;9.162;2023-10-19T08:18:35;95887.19;;;10.54;100.00
498;BME280;39559;48.630;9.162;2023-10-19T08:21:03;95890.00;;;10.64;100.00
498;BME280;39559;48.630;9.162;2023-10-19T08:23:29;95891.94;;;10.73;100.00
498;BME280;39559;48.630;9.162;2023-10-19T08:25:57;95900.59;;;10.73;100.00
498;BME280;39559;48.630;9.162;2023-10-19T08:28:24;95890.41;;;10.70;100.00
498;BME280;39559;48.630;9.162;2023-10-19T08:30:49;95892.88;;;10.85;100.00
498;BME280;39559;48.630;9.162;2023-10-19T08:33:27;95884.56;;;10.92;100.00
498;BME280;39559;48.630;9.162;2023-10-19T08:35:55;95881.09;;;11.05;100.00
498;BME280;39559;48.630;9.162;2023-10-19T08:38:22;95883.72;;;11.29;100.00
498;BME280;39559;48.630;9.162;2023-10-19T08:42:33;95879.50;;;11.52;100.00
498;BME280;39559;48.630;9.162;2023-10-19T08:45:00;95875.31;;;11.49;100.00
498;BME280;39559;48.630;9.162;2023-10-19T08:47:26;95872.91;;;11.59;100.00
498;BME280;39559;48.630;9.162;2023-10-19T08:49:53;95884.28;;;11.69;100.00
498;BME280;39559;48.630;9.162;2023-10-19T08:52:21;95885.38;;;11.78;100.00
498;BME280;39559;48.630;9.162;2023-10-19T08:54:49;95886.38;;;11.88;100.00
498;BME280;39559;48.630;9.162;2023-10-19T08:57:15;95888.66;;;12.28;100.00
498;BME280;39559;48.630;9.162;2023-10-19T08:59:40;95883.44;;;12.28;100.00
498;BME280;39559;48.630;9.162;2023-10-19T09:02:06;95869.94;;;12.23;100.00
498;BME280;39559;48.630;9.162;2023-10-19T09:06:34;95864.34;;;12.05;100.00
498;BME280;39559;48.630;9.162;2023-10-19T09:09:10;95863.53;;;12.05;100.00
498;BME280;39559;48.630;9.162;2023-10-19T09:11:43;95863.03;;;12.00;100.00
498;BME280;39559;48.630;9.162;2023-10-19T09:14:09;95872.38;;;12.02;100.00
498;BME280;39559;48.630;9.162;2023-10-19T09:16:54;95871.41;;;11.92;100.00
498;BME280;39559;48.630;9.162;2023-10-19T09:19:34;95875.47;;;12.07;100.00
498;BME280;39559;48.630;9.162;2023-10-19T09:22:02;95872.31;;;12.15;100.00
498;BME280;39559;48.630;9.162;2023-10-19T09:24:34;95878.94;;;12.19;100.00
498;BME280;39559;48.630;9.162;2023-10-19T09:27:02;95870.63;;;12.14;100.00
498;BME280;39559;48.630;9.162;2023-10-19T09:30:30;95864.75;;;12.23;100.00
498;BME280;39559;48.630;9.162;2023-10-19T09:32:57;95870.94;;;12.34;100.00
498;BME280;39559;48.630;9.162;2023-10-19T09:35:24;95867.94;;;12.38;100.00
498;BME280;39559;48.630;9.162;2023-10-19T09:37:54;95863.72;;;12.48;100.00
498;BME280;39559;48.630;9.162;2023-10-19T09:40:20;95852.94;;;12.53;100.00
498;BME280;39559;48.630;9.162;2023-10-19T09:42:49;95856.16;;;12.68;100.00
498;BME280;39559;48.630;9.162;2023-10-19T09:45:19;95847.75;;;12.64;100.00
498;BME280;39559;48.630;9.162;2023-10-19T09:47:49;95852.09;;;12.64;100.00
498;BME280;39559;48.630;9.162;2023-10-19T09:50:16;95857.69;;;12.59;100.00
498;BME280;39559;48.630;9.162;2023-10-19T09:54:54;95852.72;;;12.79;100.00
498;BME280;39559;48.630;9.162;2023-10-19T09:57:29;95862.91;;;12.71;100.00
498;BME280;39559;48.630;9.162;2023-10-19T10:00:02;95861.59;;;12.76;100.00
498;BME280;39559;48.630;9.162;2023-10-19T10:02:43;95852.25;;;12.74;100.00
498;BME280;39559;48.630;9.162;2023-10-19T10:10:43;95873.19;;;12.83;100.00
498;BME280;39559;48.630;9.162;2023-10-19T10:18:30;95866.44;;;12.81;100.00
498;BME280;39559;48.630;9.162;2023-10-19T10:21:12;95864.31;;;12.97;100.00
498;BME280;39559;48.630;9.162;2023-10-19T10:23:48;95870.22;;;13.11;100.00
498;BME280;39559;48.630;9.162;2023-10-19T10:26:16;95882.03;;;13.15;100.00
498;BME280;39559;48.630;9.162;2023-10-19T10:28:46;95877.28;;;13.20;100.00
498;BME280;39559;48.630;9.162;2023-10-19T10:31:21;95874.78;;;13.30;100.00
498;BME280;39559;48.630;9.162;2023-10-19T10:33:54;95874.94;;;13.39;100.00
498;BME280;39559;48.630;9.162;2023-10-19T10:36:20;95872.09;;;13.42;100.00
498;BME280;39559;48.630;9.162;2023-10-19T10:38:48;95876.00;;;13.69;100.00
498;BME280;39559;48.630;9.162;2023-10-19T10:42:25;95868.34;;;13.56;100.00
498;BME280;39559;48.630;9.162;2023-10-19T10:44:51;95866.59;;;13.46;100.00
498;BME280;39559;48.630;9.162;2023-10-19T10:47:22;95870.84;;;13.58;100.00
498;BME280;39559;48.630;9.162;2023-10-19T10:52:35;95861.63;;;13.54;100.00
498;BME280;39559;48.630;9.162;2023-10-19T10:55:11;95858.16;;;13.53;100.00
498;BME280;39559;48.630;9.162;2023-10-19T10:57:38;95867.88;;;13.62;100.00
498;BME280;39559;48.630;9.162;2023-10-19T11:00:11;95872.13;;;13.63;100.00
498;BME280;39559;48.630;9.162;2023-10-19T11:02:42;95877.41;;;13.73;100.00
498;BME280;39559;48.630;9.162;2023-10-19T11:06:24;95872.66;;;13.78;100.00
498;BME280;39559;48.630;9.162;2023-10-19T11:08:49;95863.34;;;13.65;100.00
498;BME280;39559;48.630;9.162;2023-10-19T11:11:15;95841.75;;;13.30;100.00
498;BME280;39559;48.630;9.162;2023-10-19T11:13:41;95846.50;;;13.14;100.00
498;BME280;39559;48.630;9.162;2023-10-19T11:16:07;95858.84;;;13.12;100.00
498;BME280;39559;48.630;9.162;2023-10-19T11:21:02;95891.50;;;13.27;100.00
498;BME280;39559;48.630;9.162;2023-10-19T11:26:09;95897.44;;;13.40;100.00
498;BME280;39559;48.630;9.162;2023-10-19T11:30:26;95897.38;;;13.63;100.00
498;BME280;39559;48.630;9.162;2023-10-19T11:32:53;95885.56;;;13.59;100.00
498;BME280;39559;48.630;9.162;2023-10-19T11:35:23;95868.28;;;13.47;100.00
498;BME280;39559;48.630;9.162;2023-10-19T11:37:50;95863.53;;;13.40;100.00
498;BME280;39559;48.630;9.162;2023-10-19T11:40:16;95867.94;;;13.40;100.00
498;BME280;39559;48.630;9.162;2023-10-19T11:42:42;95864.81;;;13.46;100.00
498;BME280;39559;48.630;9.162;2023-10-19T11:45:08;95863.63;;;13.50;100.00
498;BME280;39559;48.630;9.162;2023-10-19T11:47:34;95863.25;;;13.55;100.00
498;BME280;39559;48.630;9.162;2023-10-19T11:50:00;95851.66;;;13.48;100.00
498;BME280;39559;48.630;9.162;2023-10-19T11:54:21;95848.84;;;13.39;100.00
498;BME280;39559;48.630;9.162;2023-10-19T11:56:46;95845.03;;;13.43;100.00
498;BME280;39559;48.630;9.162;2023-10-19T11:59:13;95844.34;;;13.41;100.00
498;BME280;39559;48.630;9.162;2023-10-19T12:01:40;95840.06;;;13.40;100.00
498;BME280;39559;48.630;9.162;2023-10-19T12:04:08;95839.59;;;13.47;100.00
498;BME280;39559;48.630;9.162;2023-10-19T12:06:34;95823.72;;;13.38;100.00
498;BME280;39559;48.630;9.162;2023-10-19T12:09:00;95811.66;;;13.37;100.00
498;BME280;39559;48.630;9.162;2023-10-19T12:11:41;95806.63;;;13.46;100.00
498;BME280;39559;48.630;9.162;2023-10-19T12:14:06;95798.06;;;13.55;100.00
498;BME280;39559;48.630;9.162;2023-10-19T12:18:19;95772.56;;;13.15;100.00
498;BME280;39559;48.630;9.162;2023-10-19T12:20:46;95781.94;;;13.50;100.00
498;BME280;39559;48.630;9.162;2023-10-19T12:23:13;95787.59;;;13.66;100.00
498;BME280;39559;48.630;9.162;2023-10-19T12:25:42;95771.59;;;13.59;100.00
498;BME280;39559;48.630;9.162;2023-10-19T12:28:08;95774.53;;;13.45;100.00
498;BME280;39559;48.630;9.162;2023-10-19T12:30:39;95793.81;;;13.54;100.00
498;BME280;39559;48.630;9.162;2023-10-19T12:33:04;95801.81;;;13.62;100.00
498;BME280;39559;48.630;9.162;2023-10-19T12:35:37;95802.84;;;13.71;100.00
498;BME280;39559;48.630;9.162;2023-10-19T12:38:22;95805.66;;;13.79;100.00
498;BME280;39559;48.630;9.162;2023-10-19T12:42:15;95811.59;;;13.81;100.00
498;BME280;39559;48.630;9.162;2023-10-19T12:44:41;95817.75;;;13.80;100.00
498;BME280;39559;48.630;9.162;2023-10-19T12:47:08;95817.38;;;13.85;100.00
498;BME280;39559;48.630;9.162;2023-10-19T12:49:37;95811.13;;;13.76;100.00
498;BME280;39559;48.630;9.162;2023-10-19T12:52:03;95809.19;;;13.57;100.00
498;BME280;39559;48.630;9.162;2023-10-19T12:54:29;95813.03;;;13.74;100.00
498;BME280;39559;48.630;9.162;2023-10-19T12:56:55;95830.34;;;13.96;100.00
498;BME280;39559;48.630;9.162;2023-10-19T12:59:21;95816.81;;;13.81;100.00
498;BME280;39559;48.630;9.162;2023-10-19T13:01:48;95792.34;;;13.61;100.00
498;BME280;39559;48.630;9.162;2023-10-19T13:06:14;95798.16;;;13.53;100.00
498;BME280;39559;48.630;9.162;2023-10-19T13:08:40;95795.31;;;13.56;100.00
498;BME280;39559;48.630;9.162;2023-10-19T13:11:08;95801.06;;;13.50;100.00
498;BME280;39559;48.630;9.162;2023-10-19T13:13:33;95809.41;;;13.65;100.00
498;BME280;39559;48.630;9.162;2023-10-19T13:16:01;95814.19;;;13.81;100.00
498;BME280;39559;48.630;9.162;2023-10-19T13:18:31;95809.56;;;13.85;100.00
498;BME280;39559;48.630;9.162;2023-10-19T13:20:59;95805.28;;;13.83;100.00
498;BME280;39559;48.630;9.162;2023-10-19T13:23:31;95813.56;;;13.89;100.00
498;BME280;39559;48.630;9.162;2023-10-19T13:25:59;95806.28;;;13.92;100.00
498;BME280;39559;48.630;9.162;2023-10-19T13:30:12;95801.56;;;14.07;100.00
498;BME280;39559;48.630;9.162;2023-10-19T13:32:37;95798.53;;;14.02;100.00
498;BME280;39559;48.630;9.162;2023-10-19T13:35:06;95790.25;;;13.97;100.00
498;BME280;39559;48.630;9.162;2023-10-19T13:37:32;95786.03;;;14.06;100.00
498;BME280;39559;48.630;9.162;2023-10-19T13:39:58;95786.03;;;14.06;100.00
498;BME280;39559;48.630;9.162;2023-10-19T13:42:24;95778.97;;;13.96;100.00
498;BME280;39559;48.630;9.162;2023-10-19T13:44:50;95777.16;;;14.08;100.00
498;BME280;39559;48.630;9.162;2023-10-19T13:47:15;95766.25;;;14.03;100.00
498;BME280;39559;48.630;9.162;2023-10-19T13:49:41;95740.50;;;13.89;100.00
498;BME280;39559;48.630;9.162;2023-10-19T13:54:09;95751.13;;;13.76;100.00
498;BME280;39559;48.630;9.162;2023-10-19T13:56:36;95757.38;;;13.85;100.00
498;BME280;39559;48.630;9.162;2023-10-19T13:59:01;95757.72;;;14.01;100.00
498;BME280;39559;48.630;9.162;2023-10-19T14:01:27;95757.84;;;13.99;100.00
498;BME280;39559;48.630;9.162;2023-10-19T14:03:54;95761.97;;;14.02;100.00
498;BME280;39559;48.630;9.162;2023-10-19T14:06:23;95756.47;;;13.95;100.00
498;BME280;39559;48.630;9.162;2023-10-19T14:08:50;95754.56;;;13.97;100.00
498;BME280;39559;48.630;9.162;2023-10-19T14:11:17;95750.19;;;14.08;100.00
498;BME280;39559;48.630;9.162;2023-10-19T14:13:42;95746.63;;;14.09;100.00
498;BME280;39559;48.630;9.162;2023-10-19T14:18:08;95739.75;;;14.08;100.00
498;BME280;39559;48.630;9.162;2023-10-19T14:20:35;95731.22;;;14.06;100.00
498;BME280;39559;48.630;9.162;2023-10-19T14:23:03;95722.38;;;13.97;100.00
498;BME280;39559;48.630;9.162;2023-10-19T14:25:29;95722.91;;;13.91;100.00
498;BME280;39559;48.630;9.162;2023-10-19T14:27:56;95725.66;;;13.89;100.00
498;BME280;39559;48.630;9.162;2023-10-19T14:30:28;95737.47;;;13.93;100.00
498;BME280;39559;48.630;9.162;2023-10-19T14:32:54;95740.50;;;13.89;100.00
498;BME280;39559;48.630;9.162;2023-10-19T14:35:21;95735.84;;;13.92;100.00
498;BME280;39559;48.630;9.162;2023-10-19T14:37:53;95722.34;;;13.87;100.00
498;BME280;39559;48.630;9.162;2023-10-19T14:42:04;95710.13;;;13.88;100.00
498;BME280;39559;48.630;9.162;2023-10-19T14:44:30;95703.84;;;13.90;100.00